This London Heathrow Airport weather forecast is generated by the Met Office Weather Widget

AirNav RadarBox - Metar Weather
  London Heathrow Metar Weather
 

METAR = EGLL 272350Z 24005KT CAVOK 14/12 Q1012 NOSIG

STATION........ EGLL
OBSERVED....... Fri Aug 28, 00:50 BST
NOW............ Fri Aug 28, 00:08 BST
AGE............ -42 min ago
WIND........... WSW at 6 mph
VISIBILITY..... greater than 7 miles
CLOUDS......... clear skies
TEMP........... 57°F (14°C)
DEWPT.......... 54°F (12°C)
HUMIDITY....... 88%
BAROMETER...... 1012 hPa (29.88 in Hg)

Fri Aug 28 2015, sunrise time : 05:12
Fri Aug 28 2015, sunset time : 18:53